sensor_id;sensor_type;location;lat;lon;timestamp;P1;durP1;ratioP1;P2;durP2;ratioP2
72198;SDS011;60103;51.014;16.992;2022-11-09T00:01:02;23.20;;;9.80;;
72198;SDS011;60103;51.014;16.992;2022-11-09T00:03:31;24.10;;;9.80;;
72198;SDS011;60103;51.014;16.992;2022-11-09T00:05:59;24.70;;;10.20;;
72198;SDS011;60103;51.014;16.992;2022-11-09T00:08:27;26.60;;;11.30;;
72198;SDS011;60103;51.014;16.992;2022-11-09T00:11:00;27.80;;;11.20;;
72198;SDS011;60103;51.014;16.992;2022-11-09T00:13:33;23.30;;;9.30;;
72198;SDS011;60103;51.014;16.992;2022-11-09T00:16:01;23.70;;;10.10;;
72198;SDS011;60103;51.014;16.992;2022-11-09T00:18:30;18.40;;;8.80;;
72198;SDS011;60103;51.014;16.992;2022-11-09T00:21:03;21.80;;;9.10;;
72198;SDS011;60103;51.014;16.992;2022-11-09T00:23:33;23.80;;;10.50;;
72198;SDS011;60103;51.014;16.992;2022-11-09T00:26:02;19.30;;;8.50;;
72198;SDS011;60103;51.014;16.992;2022-11-09T00:28:30;27.30;;;11.30;;
72198;SDS011;60103;51.014;16.992;2022-11-09T00:31:01;25.40;;;10.50;;
72198;SDS011;60103;51.014;16.992;2022-11-09T00:33:30;26.20;;;10.40;;
72198;SDS011;60103;51.014;16.992;2022-11-09T00:35:58;20.20;;;8.50;;
72198;SDS011;60103;51.014;16.992;2022-11-09T00:38:25;23.40;;;9.10;;
72198;SDS011;60103;51.014;16.992;2022-11-09T00:40:52;24.40;;;9.80;;
72198;SDS011;60103;51.014;16.992;2022-11-09T00:43:20;19.90;;;7.80;;
72198;SDS011;60103;51.014;16.992;2022-11-09T00:45:47;24.50;;;9.80;;
72198;SDS011;60103;51.014;16.992;2022-11-09T00:48:15;20.30;;;8.90;;
72198;SDS011;60103;51.014;16.992;2022-11-09T00:50:47;24.70;;;10.40;;
72198;SDS011;60103;51.014;16.992;2022-11-09T00:53:18;24.70;;;10.20;;
72198;SDS011;60103;51.014;16.992;2022-11-09T00:55:56;25.00;;;10.30;;
72198;SDS011;60103;51.014;16.992;2022-11-09T00:58:25;23.50;;;9.40;;
72198;SDS011;60103;51.014;16.992;2022-11-09T01:00:54;23.70;;;9.60;;
72198;SDS011;60103;51.014;16.992;2022-11-09T01:03:23;22.80;;;9.80;;
72198;SDS011;60103;51.014;16.992;2022-11-09T01:05:51;22.30;;;9.30;;
72198;SDS011;60103;51.014;16.992;2022-11-09T01:08:18;26.60;;;11.40;;
72198;SDS011;60103;51.014;16.992;2022-11-09T01:10:46;23.60;;;9.70;;
72198;SDS011;60103;51.014;16.992;2022-11-09T01:13:14;24.00;;;9.90;;
72198;SDS011;60103;51.014;16.992;2022-11-09T01:15:47;25.50;;;9.70;;
72198;SDS011;60103;51.014;16.992;2022-11-09T01:18:17;24.70;;;10.20;;
72198;SDS011;60103;51.014;16.992;2022-11-09T01:20:47;26.70;;;11.40;;
72198;SDS011;60103;51.014;16.992;2022-11-09T01:23:16;25.00;;;10.70;;
72198;SDS011;60103;51.014;16.992;2022-11-09T01:25:44;22.10;;;8.90;;
72198;SDS011;60103;51.014;16.992;2022-11-09T01:28:12;22.50;;;9.10;;
72198;SDS011;60103;51.014;16.992;2022-11-09T01:30:41;25.50;;;10.20;;
72198;SDS011;60103;51.014;16.992;2022-11-09T01:33:09;23.70;;;9.60;;
72198;SDS011;60103;51.014;16.992;2022-11-09T01:35:38;24.80;;;10.40;;
72198;SDS011;60103;51.014;16.992;2022-11-09T01:38:06;23.90;;;9.40;;
72198;SDS011;60103;51.014;16.992;2022-11-09T01:40:37;25.70;;;10.20;;
72198;SDS011;60103;51.014;16.992;2022-11-09T01:43:19;27.70;;;10.70;;
72198;SDS011;60103;51.014;16.992;2022-11-09T01:45:58;24.80;;;9.80;;
72198;SDS011;60103;51.014;16.992;2022-11-09T01:48:35;26.70;;;10.30;;
72198;SDS011;60103;51.014;16.992;2022-11-09T01:51:49;25.80;;;10.60;;
72198;SDS011;60103;51.014;16.992;2022-11-09T01:54:35;26.70;;;11.20;;
72198;SDS011;60103;51.014;16.992;2022-11-09T01:56:56;26.20;;;11.20;;
72198;SDS011;60103;51.014;16.992;2022-11-09T01:59:28;27.80;;;11.20;;
72198;SDS011;60103;51.014;16.992;2022-11-09T02:01:59;26.20;;;11.50;;
72198;SDS011;60103;51.014;16.992;2022-11-09T02:04:35;29.80;;;12.00;;
72198;SDS011;60103;51.014;16.992;2022-11-09T02:07:04;26.50;;;11.00;;
72198;SDS011;60103;51.014;16.992;2022-11-09T02:11:59;28.10;;;11.40;;
72198;SDS011;60103;51.014;16.992;2022-11-09T02:14:27;26.20;;;10.00;;
72198;SDS011;60103;51.014;16.992;2022-11-09T02:16:56;25.40;;;10.70;;
72198;SDS011;60103;51.014;16.992;2022-11-09T02:19:23;26.60;;;10.60;;
72198;SDS011;60103;51.014;16.992;2022-11-09T02:21:50;29.30;;;11.60;;
72198;SDS011;60103;51.014;16.992;2022-11-09T02:24:18;25.60;;;10.40;;
72198;SDS011;60103;51.014;16.992;2022-11-09T02:26:50;34.20;;;12.40;;
72198;SDS011;60103;51.014;16.992;2022-11-09T02:29:22;29.90;;;10.90;;
72198;SDS011;60103;51.014;16.992;2022-11-09T02:31:53;30.10;;;12.70;;
72198;SDS011;60103;51.014;16.992;2022-11-09T02:34:23;24.00;;;9.60;;
72198;SDS011;60103;51.014;16.992;2022-11-09T02:36:51;28.00;;;12.20;;
72198;SDS011;60103;51.014;16.992;2022-11-09T02:39:20;22.80;;;10.50;;
72198;SDS011;60103;51.014;16.992;2022-11-09T02:44:18;22.40;;;9.50;;
72198;SDS011;60103;51.014;16.992;2022-11-09T02:46:45;27.80;;;12.60;;
72198;SDS011;60103;51.014;16.992;2022-11-09T02:49:13;26.10;;;10.20;;
72198;SDS011;60103;51.014;16.992;2022-11-09T02:51:40;28.10;;;11.20;;
72198;SDS011;60103;51.014;16.992;2022-11-09T02:54:08;27.80;;;11.10;;
72198;SDS011;60103;51.014;16.992;2022-11-09T02:56:37;27.60;;;11.10;;
72198;SDS011;60103;51.014;16.992;2022-11-09T02:59:07;23.90;;;10.10;;
72198;SDS011;60103;51.014;16.992;2022-11-09T03:01:34;26.10;;;11.40;;
72198;SDS011;60103;51.014;16.992;2022-11-09T03:04:03;29.60;;;12.90;;
72198;SDS011;60103;51.014;16.992;2022-11-09T03:06:31;29.10;;;12.30;;
72198;SDS011;60103;51.014;16.992;2022-11-09T03:09:08;23.00;;;10.40;;
72198;SDS011;60103;51.014;16.992;2022-11-09T03:11:37;25.10;;;10.70;;
72198;SDS011;60103;51.014;16.992;2022-11-09T03:14:06;27.30;;;11.20;;
72198;SDS011;60103;51.014;16.992;2022-11-09T03:16:36;22.90;;;9.90;;
72198;SDS011;60103;51.014;16.992;2022-11-09T03:19:04;28.20;;;11.60;;
72198;SDS011;60103;51.014;16.992;2022-11-09T03:21:33;25.30;;;11.10;;
72198;SDS011;60103;51.014;16.992;2022-11-09T03:24:01;24.60;;;10.60;;
72198;SDS011;60103;51.014;16.992;2022-11-09T03:26:28;28.20;;;11.30;;
72198;SDS011;60103;51.014;16.992;2022-11-09T03:28:55;26.70;;;11.20;;
72198;SDS011;60103;51.014;16.992;2022-11-09T03:31:22;24.40;;;10.40;;
72198;SDS011;60103;51.014;16.992;2022-11-09T03:33:51;26.40;;;11.70;;
72198;SDS011;60103;51.014;16.992;2022-11-09T03:36:18;27.50;;;11.30;;
72198;SDS011;60103;51.014;16.992;2022-11-09T03:38:45;24.00;;;10.40;;
72198;SDS011;60103;51.014;16.992;2022-11-09T03:41:13;27.30;;;10.40;;
72198;SDS011;60103;51.014;16.992;2022-11-09T03:43:41;25.70;;;11.00;;
72198;SDS011;60103;51.014;16.992;2022-11-09T03:46:09;23.60;;;10.40;;
72198;SDS011;60103;51.014;16.992;2022-11-09T03:48:36;27.00;;;11.00;;
72198;SDS011;60103;51.014;16.992;2022-11-09T03:51:03;24.00;;;10.60;;
72198;SDS011;60103;51.014;16.992;2022-11-09T03:53:30;29.00;;;11.80;;
72198;SDS011;60103;51.014;16.992;2022-11-09T03:55:57;27.40;;;11.00;;
72198;SDS011;60103;51.014;16.992;2022-11-09T03:58:25;24.60;;;11.60;;
72198;SDS011;60103;51.014;16.992;2022-11-09T04:00:52;27.60;;;11.40;;
72198;SDS011;60103;51.014;16.992;2022-11-09T04:03:19;24.00;;;10.10;;
72198;SDS011;60103;51.014;16.992;2022-11-09T04:05:47;24.30;;;9.70;;
72198;SDS011;60103;51.014;16.992;2022-11-09T04:08:14;23.30;;;10.30;;
72198;SDS011;60103;51.014;16.992;2022-11-09T04:10:43;25.60;;;10.40;;
72198;SDS011;60103;51.014;16.992;2022-11-09T04:13:10;24.00;;;10.80;;
72198;SDS011;60103;51.014;16.992;2022-11-09T04:15:37;26.40;;;10.40;;
72198;SDS011;60103;51.014;16.992;2022-11-09T04:18:04;26.90;;;11.00;;
72198;SDS011;60103;51.014;16.992;2022-11-09T04:20:32;24.50;;;10.10;;
72198;SDS011;60103;51.014;16.992;2022-11-09T04:23:00;27.70;;;10.30;;
72198;SDS011;60103;51.014;16.992;2022-11-09T04:25:33;26.10;;;10.90;;
72198;SDS011;60103;51.014;16.992;2022-11-09T04:28:02;26.30;;;11.00;;
72198;SDS011;60103;51.014;16.992;2022-11-09T04:30:31;25.80;;;11.00;;
72198;SDS011;60103;51.014;16.992;2022-11-09T04:32:59;26.90;;;11.50;;
72198;SDS011;60103;51.014;16.992;2022-11-09T04:35:27;24.50;;;9.60;;
72198;SDS011;60103;51.014;16.992;2022-11-09T04:37:55;26.50;;;10.10;;
72198;SDS011;60103;51.014;16.992;2022-11-09T04:40:25;28.30;;;11.60;;
72198;SDS011;60103;51.014;16.992;2022-11-09T04:42:53;25.70;;;9.90;;
72198;SDS011;60103;51.014;16.992;2022-11-09T04:45:20;24.60;;;10.10;;
72198;SDS011;60103;51.014;16.992;2022-11-09T04:47:48;21.80;;;9.40;;
72198;SDS011;60103;51.014;16.992;2022-11-09T04:50:15;27.50;;;11.70;;
72198;SDS011;60103;51.014;16.992;2022-11-09T04:52:42;31.30;;;12.40;;
72198;SDS011;60103;51.014;16.992;2022-11-09T04:55:10;27.30;;;10.70;;
72198;SDS011;60103;51.014;16.992;2022-11-09T04:57:37;27.50;;;11.40;;
72198;SDS011;60103;51.014;16.992;2022-11-09T05:00:05;24.70;;;10.40;;
72198;SDS011;60103;51.014;16.992;2022-11-09T05:02:33;22.60;;;9.20;;
72198;SDS011;60103;51.014;16.992;2022-11-09T05:05:00;24.80;;;10.30;;
72198;SDS011;60103;51.014;16.992;2022-11-09T05:07:27;25.60;;;10.00;;
72198;SDS011;60103;51.014;16.992;2022-11-09T05:09:55;30.00;;;11.80;;
72198;SDS011;60103;51.014;16.992;2022-11-09T05:12:23;30.60;;;12.30;;
72198;SDS011;60103;51.014;16.992;2022-11-09T05:14:51;28.30;;;10.60;;
72198;SDS011;60103;51.014;16.992;2022-11-09T05:17:18;30.00;;;11.70;;
72198;SDS011;60103;51.014;16.992;2022-11-09T05:19:45;28.20;;;11.70;;
72198;SDS011;60103;51.014;16.992;2022-11-09T05:22:17;28.00;;;11.70;;
72198;SDS011;60103;51.014;16.992;2022-11-09T05:25:23;30.50;;;12.10;;
72198;SDS011;60103;51.014;16.992;2022-11-09T05:27:51;28.50;;;11.70;;
72198;SDS011;60103;51.014;16.992;2022-11-09T05:30:20;25.80;;;10.50;;
72198;SDS011;60103;51.014;16.992;2022-11-09T05:32:48;30.00;;;11.70;;
72198;SDS011;60103;51.014;16.992;2022-11-09T05:35:16;30.40;;;11.70;;
72198;SDS011;60103;51.014;16.992;2022-11-09T05:37:47;29.40;;;11.70;;
72198;SDS011;60103;51.014;16.992;2022-11-09T05:40:16;26.40;;;11.20;;
72198;SDS011;60103;51.014;16.992;2022-11-09T05:42:46;24.90;;;10.70;;
72198;SDS011;60103;51.014;16.992;2022-11-09T05:45:15;22.20;;;9.60;;
72198;SDS011;60103;51.014;16.992;2022-11-09T05:48:04;30.70;;;12.00;;
72198;SDS011;60103;51.014;16.992;2022-11-09T05:50:32;29.60;;;11.70;;
72198;SDS011;60103;51.014;16.992;2022-11-09T05:53:29;29.40;;;12.00;;
72198;SDS011;60103;51.014;16.992;2022-11-09T05:56:03;27.60;;;11.20;;
72198;SDS011;60103;51.014;16.992;2022-11-09T05:58:34;32.30;;;13.30;;
72198;SDS011;60103;51.014;16.992;2022-11-09T06:01:04;28.10;;;12.40;;
72198;SDS011;60103;51.014;16.992;2022-11-09T06:03:33;31.00;;;11.90;;
72198;SDS011;60103;51.014;16.992;2022-11-09T06:06:04;30.30;;;11.70;;
72198;SDS011;60103;51.014;16.992;2022-11-09T06:08:34;25.60;;;10.60;;
72198;SDS011;60103;51.014;16.992;2022-11-09T06:11:06;25.30;;;10.70;;
72198;SDS011;60103;51.014;16.992;2022-11-09T06:13:35;26.10;;;10.70;;
72198;SDS011;60103;51.014;16.992;2022-11-09T06:16:03;27.00;;;10.70;;
72198;SDS011;60103;51.014;16.992;2022-11-09T06:18:32;25.80;;;10.80;;
72198;SDS011;60103;51.014;16.992;2022-11-09T06:21:01;27.50;;;11.40;;
72198;SDS011;60103;51.014;16.992;2022-11-09T06:23:29;26.30;;;10.60;;
72198;SDS011;60103;51.014;16.992;2022-11-09T06:25:58;24.40;;;10.20;;
72198;SDS011;60103;51.014;16.992;2022-11-09T06:28:27;22.20;;;8.90;;
72198;SDS011;60103;51.014;16.992;2022-11-09T06:30:56;24.10;;;9.70;;
72198;SDS011;60103;51.014;16.992;2022-11-09T06:33:24;28.30;;;11.20;;
72198;SDS011;60103;51.014;16.992;2022-11-09T06:35:52;26.50;;;11.60;;
72198;SDS011;60103;51.014;16.992;2022-11-09T06:38:22;28.20;;;11.60;;
72198;SDS011;60103;51.014;16.992;2022-11-09T06:40:52;29.20;;;11.80;;
72198;SDS011;60103;51.014;16.992;2022-11-09T06:43:21;27.30;;;11.40;;
72198;SDS011;60103;51.014;16.992;2022-11-09T06:45:49;26.50;;;10.90;;
72198;SDS011;60103;51.014;16.992;2022-11-09T06:48:17;29.90;;;12.10;;
72198;SDS011;60103;51.014;16.992;2022-11-09T06:50:45;26.90;;;11.20;;
72198;SDS011;60103;51.014;16.992;2022-11-09T06:53:13;28.70;;;11.80;;
72198;SDS011;60103;51.014;16.992;2022-11-09T06:55:41;31.00;;;12.40;;
72198;SDS011;60103;51.014;16.992;2022-11-09T06:58:16;27.10;;;10.80;;
72198;SDS011;60103;51.014;16.992;2022-11-09T07:00:45;26.10;;;10.70;;
72198;SDS011;60103;51.014;16.992;2022-11-09T07:03:16;26.20;;;10.90;;
72198;SDS011;60103;51.014;16.992;2022-11-09T07:05:46;30.30;;;11.20;;
72198;SDS011;60103;51.014;16.992;2022-11-09T07:08:15;26.10;;;10.20;;
72198;SDS011;60103;51.014;16.992;2022-11-09T07:10:44;25.20;;;10.70;;
72198;SDS011;60103;51.014;16.992;2022-11-09T07:13:11;25.70;;;10.30;;
72198;SDS011;60103;51.014;16.992;2022-11-09T07:15:39;31.10;;;11.30;;
72198;SDS011;60103;51.014;16.992;2022-11-09T07:18:07;24.30;;;10.50;;
72198;SDS011;60103;51.014;16.992;2022-11-09T07:20:37;23.30;;;9.00;;
72198;SDS011;60103;51.014;16.992;2022-11-09T07:23:04;25.60;;;10.20;;
72198;SDS011;60103;51.014;16.992;2022-11-09T07:25:32;26.70;;;9.80;;
72198;SDS011;60103;51.014;16.992;2022-11-09T07:28:04;24.70;;;9.80;;
72198;SDS011;60103;51.014;16.992;2022-11-09T07:30:33;27.40;;;11.10;;
72198;SDS011;60103;51.014;16.992;2022-11-09T07:33:02;25.90;;;10.90;;
72198;SDS011;60103;51.014;16.992;2022-11-09T07:35:36;24.70;;;10.80;;
72198;SDS011;60103;51.014;16.992;2022-11-09T07:38:03;27.80;;;11.60;;
72198;SDS011;60103;51.014;16.992;2022-11-09T07:40:31;25.60;;;10.80;;
72198;SDS011;60103;51.014;16.992;2022-11-09T07:43:02;25.70;;;10.90;;
72198;SDS011;60103;51.014;16.992;2022-11-09T07:45:31;20.10;;;7.90;;
72198;SDS011;60103;51.014;16.992;2022-11-09T07:48:00;28.30;;;11.50;;
72198;SDS011;60103;51.014;16.992;2022-11-09T07:50:29;25.50;;;11.70;;
72198;SDS011;60103;51.014;16.992;2022-11-09T07:52:58;28.40;;;11.80;;
72198;SDS011;60103;51.014;16.992;2022-11-09T07:55:26;28.30;;;12.20;;
72198;SDS011;60103;51.014;16.992;2022-11-09T07:57:57;27.80;;;10.80;;
72198;SDS011;60103;51.014;16.992;2022-11-09T08:00:29;28.40;;;11.50;;
72198;SDS011;60103;51.014;16.992;2022-11-09T08:02:57;25.30;;;10.40;;
72198;SDS011;60103;51.014;16.992;2022-11-09T08:05:25;25.80;;;10.60;;
72198;SDS011;60103;51.014;16.992;2022-11-09T08:07:53;24.10;;;9.80;;
72198;SDS011;60103;51.014;16.992;2022-11-09T08:10:22;28.10;;;12.20;;
72198;SDS011;60103;51.014;16.992;2022-11-09T08:12:53;27.70;;;11.20;;
72198;SDS011;60103;51.014;16.992;2022-11-09T08:15:22;26.20;;;11.50;;
72198;SDS011;60103;51.014;16.992;2022-11-09T08:17:50;26.00;;;11.30;;
72198;SDS011;60103;51.014;16.992;2022-11-09T08:20:18;31.40;;;13.10;;
72198;SDS011;60103;51.014;16.992;2022-11-09T08:22:47;26.10;;;11.40;;
72198;SDS011;60103;51.014;16.992;2022-11-09T08:25:14;27.60;;;11.60;;
72198;SDS011;60103;51.014;16.992;2022-11-09T08:27:42;27.80;;;12.10;;
72198;SDS011;60103;51.014;16.992;2022-11-09T08:30:17;27.40;;;12.80;;
72198;SDS011;60103;51.014;16.992;2022-11-09T08:32:47;24.30;;;10.40;;
72198;SDS011;60103;51.014;16.992;2022-11-09T08:35:16;24.60;;;10.20;;
72198;SDS011;60103;51.014;16.992;2022-11-09T08:37:46;26.10;;;10.70;;
72198;SDS011;60103;51.014;16.992;2022-11-09T08:40:15;26.60;;;11.80;;
72198;SDS011;60103;51.014;16.992;2022-11-09T08:42:44;24.70;;;10.50;;
72198;SDS011;60103;51.014;16.992;2022-11-09T08:45:11;24.40;;;11.10;;
72198;SDS011;60103;51.014;16.992;2022-11-09T08:47:39;24.30;;;10.30;;
72198;SDS011;60103;51.014;16.992;2022-11-09T08:50:07;26.80;;;11.70;;
72198;SDS011;60103;51.014;16.992;2022-11-09T08:52:35;25.40;;;11.20;;
72198;SDS011;60103;51.014;16.992;2022-11-09T08:55:03;25.50;;;11.20;;
72198;SDS011;60103;51.014;16.992;2022-11-09T08:57:31;23.40;;;10.40;;
72198;SDS011;60103;51.014;16.992;2022-11-09T08:59:59;23.50;;;10.80;;
72198;SDS011;60103;51.014;16.992;2022-11-09T09:02:26;25.20;;;11.00;;
72198;SDS011;60103;51.014;16.992;2022-11-09T09:04:54;23.30;;;10.60;;
72198;SDS011;60103;51.014;16.992;2022-11-09T09:07:22;25.40;;;11.40;;
72198;SDS011;60103;51.014;16.992;2022-11-09T09:09:49;24.60;;;11.00;;
72198;SDS011;60103;51.014;16.992;2022-11-09T09:12:16;22.00;;;10.40;;
72198;SDS011;60103;51.014;16.992;2022-11-09T09:14:45;26.00;;;11.40;;
72198;SDS011;60103;51.014;16.992;2022-11-09T09:17:12;24.70;;;11.10;;
72198;SDS011;60103;51.014;16.992;2022-11-09T09:19:40;25.60;;;11.00;;
72198;SDS011;60103;51.014;16.992;2022-11-09T09:22:14;23.90;;;10.50;;
72198;SDS011;60103;51.014;16.992;2022-11-09T09:24:42;24.20;;;11.10;;
72198;SDS011;60103;51.014;16.992;2022-11-09T09:27:10;25.30;;;10.20;;
72198;SDS011;60103;51.014;16.992;2022-11-09T09:29:37;22.00;;;10.30;;
72198;SDS011;60103;51.014;16.992;2022-11-09T09:32:05;23.70;;;10.20;;
72198;SDS011;60103;51.014;16.992;2022-11-09T09:34:32;22.10;;;10.20;;
72198;SDS011;60103;51.014;16.992;2022-11-09T09:36:59;23.00;;;10.50;;
72198;SDS011;60103;51.014;16.992;2022-11-09T09:39:28;24.20;;;10.20;;
72198;SDS011;60103;51.014;16.992;2022-11-09T09:41:57;20.10;;;9.00;;
72198;SDS011;60103;51.014;16.992;2022-11-09T09:47:19;20.30;;;8.50;;
72198;SDS011;60103;51.014;16.992;2022-11-09T09:49:58;19.80;;;9.00;;
72198;SDS011;60103;51.014;16.992;2022-11-09T09:55:39;19.50;;;8.90;;
72198;SDS011;60103;51.014;16.992;2022-11-09T09:58:28;20.60;;;9.70;;
72198;SDS011;60103;51.014;16.992;2022-11-09T10:01:09;21.00;;;9.20;;
72198;SDS011;60103;51.014;16.992;2022-11-09T10:03:39;19.90;;;8.60;;
72198;SDS011;60103;51.014;16.992;2022-11-09T10:09:13;22.80;;;10.10;;
72198;SDS011;60103;51.014;16.992;2022-11-09T10:11:51;18.40;;;7.90;;
72198;SDS011;60103;51.014;16.992;2022-11-09T10:14:39;21.30;;;9.10;;
72198;SDS011;60103;51.014;16.992;2022-11-09T10:22:49;24.20;;;9.80;;
72198;SDS011;60103;51.014;16.992;2022-11-09T10:25:41;21.50;;;9.30;;
72198;SDS011;60103;51.014;16.992;2022-11-09T10:28:30;22.10;;;10.10;;
72198;SDS011;60103;51.014;16.992;2022-11-09T10:31:20;20.50;;;9.60;;
72198;SDS011;60103;51.014;16.992;2022-11-09T10:33:55;21.30;;;10.10;;
72198;SDS011;60103;51.014;16.992;2022-11-09T10:36:27;24.40;;;10.40;;
72198;SDS011;60103;51.014;16.992;2022-11-09T10:38:59;24.80;;;9.20;;
72198;SDS011;60103;51.014;16.992;2022-11-09T10:41:46;23.70;;;10.40;;
72198;SDS011;60103;51.014;16.992;2022-11-09T10:44:32;24.70;;;10.30;;
72198;SDS011;60103;51.014;16.992;2022-11-09T10:47:18;20.40;;;10.00;;
72198;SDS011;60103;51.014;16.992;2022-11-09T10:50:15;20.30;;;9.30;;
72198;SDS011;60103;51.014;16.992;2022-11-09T10:58:54;22.50;;;10.30;;
72198;SDS011;60103;51.014;16.992;2022-11-09T11:01:40;19.90;;;8.70;;
72198;SDS011;60103;51.014;16.992;2022-11-09T11:04:26;21.50;;;9.90;;
72198;SDS011;60103;51.014;16.992;2022-11-09T11:07:13;21.70;;;9.50;;
72198;SDS011;60103;51.014;16.992;2022-11-09T11:15:45;22.20;;;9.90;;
72198;SDS011;60103;51.014;16.992;2022-11-09T11:18:32;20.80;;;9.20;;
72198;SDS011;60103;51.014;16.992;2022-11-09T11:21:21;23.00;;;10.80;;
72198;SDS011;60103;51.014;16.992;2022-11-09T11:27:03;23.10;;;10.20;;
72198;SDS011;60103;51.014;16.992;2022-11-09T11:30:15;18.90;;;8.50;;
72198;SDS011;60103;51.014;16.992;2022-11-09T11:33:11;22.60;;;9.70;;
72198;SDS011;60103;51.014;16.992;2022-11-09T11:36:10;21.00;;;9.40;;
72198;SDS011;60103;51.014;16.992;2022-11-09T11:39:25;21.80;;;9.40;;
72198;SDS011;60103;51.014;16.992;2022-11-09T11:42:39;20.90;;;9.60;;
72198;SDS011;60103;51.014;16.992;2022-11-09T11:45:45;20.00;;;8.80;;
72198;SDS011;60103;51.014;16.992;2022-11-09T11:48:53;21.40;;;9.20;;
72198;SDS011;60103;51.014;16.992;2022-11-09T11:55:31;19.40;;;8.90;;
72198;SDS011;60103;51.014;16.992;2022-11-09T12:07:53;21.60;;;8.90;;
72198;SDS011;60103;51.014;16.992;2022-11-09T12:23:10;24.40;;;10.90;;
72198;SDS011;60103;51.014;16.992;2022-11-09T12:32:10;20.40;;;9.20;;
72198;SDS011;60103;51.014;16.992;2022-11-09T12:35:17;21.70;;;9.70;;
72198;SDS011;60103;51.014;16.992;2022-11-09T12:38:20;21.10;;;9.90;;
72198;SDS011;60103;51.014;16.992;2022-11-09T12:41:14;19.30;;;8.50;;
72198;SDS011;60103;51.014;16.992;2022-11-09T12:44:03;24.40;;;10.70;;
72198;SDS011;60103;51.014;16.992;2022-11-09T12:47:36;21.90;;;9.20;;
72198;SDS011;60103;51.014;16.992;2022-11-09T12:50:16;22.10;;;10.00;;
72198;SDS011;60103;51.014;16.992;2022-11-09T12:53:03;22.80;;;10.40;;
72198;SDS011;60103;51.014;16.992;2022-11-09T12:58:41;16.90;;;8.10;;
72198;SDS011;60103;51.014;16.992;2022-11-09T13:04:21;21.70;;;9.20;;
72198;SDS011;60103;51.014;16.992;2022-11-09T13:09:55;21.10;;;9.60;;
72198;SDS011;60103;51.014;16.992;2022-11-09T13:12:42;21.80;;;9.70;;
72198;SDS011;60103;51.014;16.992;2022-11-09T13:15:29;20.40;;;9.10;;
72198;SDS011;60103;51.014;16.992;2022-11-09T13:21:31;20.70;;;8.80;;
72198;SDS011;60103;51.014;16.992;2022-11-09T13:33:14;23.00;;;10.00;;
72198;SDS011;60103;51.014;16.992;2022-11-09T13:48:47;24.90;;;10.50;;
72198;SDS011;60103;51.014;16.992;2022-11-09T13:54:27;24.90;;;10.50;;
72198;SDS011;60103;51.014;16.992;2022-11-09T13:57:16;26.30;;;11.60;;
72198;SDS011;60103;51.014;16.992;2022-11-09T14:00:03;26.80;;;11.70;;
72198;SDS011;60103;51.014;16.992;2022-11-09T14:02:58;28.00;;;11.90;;
72198;SDS011;60103;51.014;16.992;2022-11-09T14:06:05;29.10;;;12.10;;
72198;SDS011;60103;51.014;16.992;2022-11-09T14:08:51;22.60;;;10.30;;
72198;SDS011;60103;51.014;16.992;2022-11-09T14:15:07;26.00;;;11.70;;
72198;SDS011;60103;51.014;16.992;2022-11-09T14:18:39;24.50;;;10.30;;
72198;SDS011;60103;51.014;16.992;2022-11-09T14:21:44;23.60;;;9.10;;
72198;SDS011;60103;51.014;16.992;2022-11-09T14:24:32;24.50;;;9.90;;
72198;SDS011;60103;51.014;16.992;2022-11-09T14:27:22;24.40;;;11.10;;
72198;SDS011;60103;51.014;16.992;2022-11-09T14:30:16;25.10;;;10.20;;
72198;SDS011;60103;51.014;16.992;2022-11-09T14:33:20;28.10;;;10.60;;
72198;SDS011;60103;51.014;16.992;2022-11-09T14:36:13;28.00;;;11.60;;
72198;SDS011;60103;51.014;16.992;2022-11-09T14:39:00;28.00;;;12.10;;
72198;SDS011;60103;51.014;16.992;2022-11-09T14:41:49;30.10;;;11.90;;
72198;SDS011;60103;51.014;16.992;2022-11-09T14:44:37;28.80;;;11.80;;
72198;SDS011;60103;51.014;16.992;2022-11-09T14:47:31;25.60;;;10.70;;
72198;SDS011;60103;51.014;16.992;2022-11-09T14:50:52;24.90;;;10.00;;
72198;SDS011;60103;51.014;16.992;2022-11-09T14:53:31;26.00;;;11.40;;
72198;SDS011;60103;51.014;16.992;2022-11-09T14:56:20;26.90;;;11.30;;
72198;SDS011;60103;51.014;16.992;2022-11-09T14:59:09;28.80;;;12.90;;
72198;SDS011;60103;51.014;16.992;2022-11-09T15:02:06;29.10;;;12.30;;
72198;SDS011;60103;51.014;16.992;2022-11-09T15:04:54;25.70;;;11.00;;
72198;SDS011;60103;51.014;16.992;2022-11-09T15:07:44;27.80;;;11.50;;
72198;SDS011;60103;51.014;16.992;2022-11-09T15:10:31;24.20;;;10.70;;
72198;SDS011;60103;51.014;16.992;2022-11-09T15:13:29;27.40;;;11.90;;
72198;SDS011;60103;51.014;16.992;2022-11-09T15:16:20;26.40;;;11.10;;
72198;SDS011;60103;51.014;16.992;2022-11-09T15:19:20;28.80;;;12.40;;
72198;SDS011;60103;51.014;16.992;2022-11-09T15:28:23;29.20;;;12.40;;
72198;SDS011;60103;51.014;16.992;2022-11-09T15:31:12;27.40;;;11.20;;
72198;SDS011;60103;51.014;16.992;2022-11-09T15:34:01;29.20;;;11.00;;
72198;SDS011;60103;51.014;16.992;2022-11-09T15:36:52;26.10;;;10.20;;
72198;SDS011;60103;51.014;16.992;2022-11-09T15:39:39;25.60;;;10.50;;
72198;SDS011;60103;51.014;16.992;2022-11-09T15:42:25;25.70;;;11.00;;
72198;SDS011;60103;51.014;16.992;2022-11-09T15:45:15;29.50;;;11.90;;
72198;SDS011;60103;51.014;16.992;2022-11-09T15:48:07;26.70;;;10.90;;
72198;SDS011;60103;51.014;16.992;2022-11-09T15:50:53;31.40;;;13.20;;
72198;SDS011;60103;51.014;16.992;2022-11-09T15:53:39;32.60;;;13.20;;
72198;SDS011;60103;51.014;16.992;2022-11-09T15:56:25;31.20;;;13.50;;
72198;SDS011;60103;51.014;16.992;2022-11-09T15:59:19;25.60;;;10.90;;
72198;SDS011;60103;51.014;16.992;2022-11-09T16:02:08;27.70;;;12.00;;
72198;SDS011;60103;51.014;16.992;2022-11-09T16:04:55;26.20;;;11.10;;
72198;SDS011;60103;51.014;16.992;2022-11-09T16:07:48;33.00;;;14.10;;
72198;SDS011;60103;51.014;16.992;2022-11-09T16:10:34;31.10;;;12.60;;
72198;SDS011;60103;51.014;16.992;2022-11-09T16:13:25;29.90;;;13.20;;
72198;SDS011;60103;51.014;16.992;2022-11-09T16:16:12;28.30;;;12.90;;
72198;SDS011;60103;51.014;16.992;2022-11-09T16:18:59;29.80;;;12.30;;
72198;SDS011;60103;51.014;16.992;2022-11-09T16:21:46;28.60;;;11.20;;
72198;SDS011;60103;51.014;16.992;2022-11-09T16:24:33;34.60;;;14.60;;
72198;SDS011;60103;51.014;16.992;2022-11-09T16:27:19;34.90;;;15.40;;
72198;SDS011;60103;51.014;16.992;2022-11-09T16:30:27;33.60;;;14.60;;
72198;SDS011;60103;51.014;16.992;2022-11-09T16:33:13;32.20;;;14.20;;
72198;SDS011;60103;51.014;16.992;2022-11-09T16:36:03;30.20;;;12.40;;
72198;SDS011;60103;51.014;16.992;2022-11-09T16:38:51;28.90;;;13.20;;
72198;SDS011;60103;51.014;16.992;2022-11-09T16:41:39;29.90;;;12.80;;
72198;SDS011;60103;51.014;16.992;2022-11-09T16:44:29;29.00;;;11.80;;
72198;SDS011;60103;51.014;16.992;2022-11-09T16:47:18;29.50;;;12.10;;
72198;SDS011;60103;51.014;16.992;2022-11-09T16:50:05;28.20;;;12.10;;
72198;SDS011;60103;51.014;16.992;2022-11-09T16:52:52;26.70;;;11.30;;
72198;SDS011;60103;51.014;16.992;2022-11-09T16:55:39;28.90;;;12.60;;